首页
METAR-TAF:

METAR-TAF

机场 :

Julian Carroll Airport

杰克逊, 肯塔基州, 美国

纬度: 37-35-29N, 经度: 083-18-52W, 海拔: 421米

当前天气观测

该预报发布于22分钟前的09:53 UTC
风速3节,风向北转西北
温度 2°C
湿度 60%
气压 1025 hPa
能見度: 16.1公里
天空无云

METAR: KJKL 150953Z AUTO 34003KT 10SM CLR 02/M05 A3028 RMK AO2 SLP257 T00171050

时间: 05:15 (10:15 UTC)

预报

该预报发布于4小时和40分钟前的05:35 UTC
预报有效从15日的 06点(UTC)到 16日的 06点(UTC)
风速3节,风向多变
能見度: 10公里
散云层高于25000英尺
从 15日的 2000点(UTC)
风速5节,风向
能見度: 10公里
少量云层高于25000英尺

TAF: KJKL 150535Z 1506/1606 VRB03KT P6SM SCT250 FM152000 36005KT P6SM FEW250

超过4000个机场的气象观测和天气预报(METAR&TAF报告)。

可查询的气象台以黄色和红色小点在地图上表示。

将鼠标移到小点上方,可查看气象台名称。

然后点击查看天气观测和预报。

如需切换地图:点击带黑十字的绿色按钮放大地图;点击带横线的绿色按钮缩小地图;或者点击绿色箭头查看邻近地区的地图。


METAR-TAF: